Time;durP1;ratioP1;P1;durP2;ratioP2;P2;SDS_P1;SDS_P2;PMS_P1;PMS_P2;Temp;Humidity;BMP_temperature;BMP_pressure;BME280_temperature;BME280_humidity;BME280_pressure;Samples;Min_cycle;Max_cycle;Signal;HPM_P1;HPM_P2
2022/06/22 00:01:14;;;;;;;4.82;4.32;;;;;;;28.00;50.61;100389.47;4790667;29;20047;-69
2022/06/22 00:03:46;;;;;;;5.43;4.25;;;;;;;27.98;50.50;100391.88;4800010;29;20434;-69
2022/06/22 00:06:42;;;;;;;6.53;4.05;;;;;;;28.06;49.55;100387.03;4801979;29;20055;-69
2022/06/22 00:09:37;;;;;;;4.85;3.92;;;;;;;27.97;49.38;100387.47;4794565;29;20066;-69
2022/06/22 00:12:17;;;;;;;5.60;4.07;;;;;;;28.01;49.35;100374.19;4789074;29;20059;-69
2022/06/22 00:14:48;;;;;;;5.60;4.15;;;;;;;27.87;49.33;100369.41;4805300;29;20126;-69
2022/06/22 00:17:24;;;;;;;4.50;3.65;;;;;;;27.68;49.45;100369.84;4804577;29;20070;-69
2022/06/22 00:19:59;;;;;;;6.78;4.10;;;;;;;27.66;49.71;100364.63;4805242;29;20039;-69
2022/06/22 00:22:28;;;;;;;7.18;3.67;;;;;;;27.61;49.54;100367.84;4805150;29;20062;-69
2022/06/22 00:25:11;;;;;;;5.90;4.07;;;;;;;27.56;49.37;100365.41;4805165;29;20490;-69
2022/06/22 00:27:39;;;;;;;4.25;3.42;;;;;;;27.55;48.89;100358.16;4788947;29;20055;-69
2022/06/22 00:30:12;;;;;;;4.40;3.65;;;;;;;27.46;49.29;100350.19;4788332;29;20053;-69
2022/06/22 00:32:53;;;;;;;4.53;4.03;;;;;;;27.48;49.19;100353.38;4796269;29;20055;-69
2022/06/22 00:35:41;;;;;;;5.85;4.13;;;;;;;27.37;49.42;100353.41;4799131;29;20051;-69
2022/06/22 00:38:19;;;;;;;5.80;3.92;;;;;;;27.28;50.03;100352.97;4807060;29;20059;-69
2022/06/22 00:40:55;;;;;;;4.65;4.00;;;;;;;27.31;49.62;100358.59;4808645;29;20082;-68
2022/06/22 00:43:30;;;;;;;6.88;3.90;;;;;;;27.18;49.81;100360.22;4808477;29;20055;-67
2022/06/22 00:45:59;;;;;;;6.10;3.83;;;;;;;27.17;50.10;100361.41;4808359;29;20051;-67
2022/06/22 00:48:36;;;;;;;4.95;3.60;;;;;;;27.19;50.31;100359.81;4808224;29;20391;-68
2022/06/22 00:51:13;;;;;;;4.57;3.97;;;;;;;27.16;50.07;100356.97;4808249;29;20051;-68
2022/06/22 00:53:59;;;;;;;4.60;4.20;;;;;;;27.05;50.69;100363.41;4808410;29;20112;-68
2022/06/22 00:56:36;;;;;;;4.63;4.22;;;;;;;27.10;50.63;100350.97;4808322;29;20059;-68
2022/06/22 00:59:22;;;;;;;6.88;4.13;;;;;;;26.95;51.73;100345.34;4807774;29;20072;-68
2022/06/22 01:02:13;;;;;;;5.80;3.95;;;;;;;27.00;51.59;100348.94;4792227;29;20062;-68
2022/06/22 01:05:00;;;;;;;4.95;4.35;;;;;;;26.90;52.17;100353.31;4808290;29;20398;-67
2022/06/22 01:07:39;;;;;;;4.57;4.15;;;;;;;27.03;52.07;100357.38;4808372;29;20059;-68
2022/06/22 01:10:37;;;;;;;4.63;4.15;;;;;;;26.97;52.41;100356.16;4807573;29;20051;-68
2022/06/22 01:13:44;;;;;;;7.25;4.65;;;;;;;26.86;53.33;100366.53;4802198;29;20055;-68
2022/06/22 01:16:23;;;;;;;6.25;4.20;;;;;;;26.87;53.27;100365.34;4807913;29;20528;-68
2022/06/22 01:19:14;;;;;;;6.78;4.18;;;;;;;26.70;53.54;100367.72;4808109;29;20058;-68
2022/06/22 01:21:46;;;;;;;5.93;4.28;;;;;;;26.68;53.96;100379.34;4807940;29;20058;-68
2022/06/22 01:24:37;;;;;;;6.57;4.22;;;;;;;26.76;53.49;100368.13;4807164;29;20058;-68
2022/06/22 01:27:30;;;;;;;7.03;4.93;;;;;;;26.67;53.97;100366.50;4795258;29;20076;-67
2022/06/22 01:30:03;;;;;;;5.28;4.40;;;;;;;26.70;54.09;100356.50;4807608;29;20084;-67
2022/06/22 01:32:35;;;;;;;4.72;4.28;;;;;;;26.70;54.03;100357.28;4791631;29;20542;-67
2022/06/22 01:35:16;;;;;;;4.60;4.20;;;;;;;26.55;54.11;100359.25;4806947;29;20055;-67
2022/06/22 01:37:45;;;;;;;6.30;4.45;;;;;;;26.56;54.17;100358.06;4807748;29;20051;-67
2022/06/22 01:40:15;;;;;;;5.00;4.55;;;;;;;26.58;54.11;100365.28;4807000;29;20059;-67
2022/06/22 01:43:06;;;;;;;5.25;4.55;;;;;;;26.62;53.87;100357.66;4806771;29;20054;-67
2022/06/22 01:45:45;;;;;;;7.70;4.30;;;;;;;26.66;53.83;100352.88;4806786;29;20050;-67
2022/06/22 01:48:30;;;;;;;5.53;5.00;;;;;;;26.55;54.29;100356.44;4807455;29;20050;-68
2022/06/22 01:51:17;;;;;;;5.68;4.93;;;;;;;26.41;54.86;100359.22;4796439;29;20517;-68
2022/06/22 01:53:51;;;;;;;5.22;4.68;;;;;;;26.40;54.89;100355.59;4807103;29;21458;-67
2022/06/22 01:56:29;;;;;;;5.63;4.43;;;;;;;26.56;56.53;100362.88;4807187;29;20069;-67
2022/06/22 01:59:21;;;;;;;4.85;4.45;;;;;;;26.50;57.10;100347.63;4794816;29;20047;-68
2022/06/22 02:02:08;;;;;;;6.03;5.45;;;;;;;26.29;58.28;100360.34;4806888;29;20063;-67
2022/06/22 02:04:43;;;;;;;5.90;5.10;;;;;;;26.06;59.59;100352.22;4806909;29;20055;-68
2022/06/22 02:10:38;;;;;;;6.60;5.68;;;;;;;25.72;61.79;100344.81;4807318;29;20065;-68
2022/06/22 02:13:14;;;;;;;9.35;6.10;;;;;;;25.67;62.33;100347.97;4807447;29;20051;-67
2022/06/22 02:15:50;;;;;;;11.07;5.55;;;;;;;25.58;62.67;100351.13;4807046;29;20047;-67
2022/06/22 02:18:30;;;;;;;7.65;6.28;;;;;;;25.56;63.00;100345.13;4807246;29;20043;-67
2022/06/22 02:21:13;;;;;;;7.25;6.20;;;;;;;25.59;62.72;100341.50;4806931;29;20057;-67
2022/06/22 02:23:43;;;;;;;7.18;6.15;;;;;;;25.66;62.75;100333.16;4807072;29;20043;-68
2022/06/22 02:26:15;;;;;;;9.30;5.68;;;;;;;25.85;61.18;100326.47;4806639;29;20062;-68
2022/06/22 02:28:44;;;;;;;8.50;5.50;;;;;;;25.82;61.89;100327.28;4806599;29;20058;-68
2022/06/22 02:31:12;;;;;;;7.47;6.03;;;;;;;25.73;62.11;100335.22;4806700;29;20051;-68
2022/06/22 02:33:46;;;;;;;9.73;5.68;;;;;;;25.68;62.41;100335.56;4806806;29;20151;-68
2022/06/22 02:36:14;;;;;;;8.73;6.10;;;;;;;25.89;62.19;100338.50;4806415;29;20059;-68
2022/06/22 02:38:46;;;;;;;8.30;5.80;;;;;;;25.91;62.18;100332.53;4806480;29;20065;-68
2022/06/22 02:46:49;;;;;;;8.65;6.50;;;;;;;25.57;64.64;100367.09;4806429;29;20070;-67
2022/06/22 02:49:40;;;;;;;7.30;5.80;;;;;;;25.48;63.96;100370.22;4806408;29;20057;-67
2022/06/22 02:52:11;;;;;;;7.15;5.75;;;;;;;25.58;63.43;100362.31;4806430;29;20062;-68
2022/06/22 02:54:46;;;;;;;7.88;5.18;;;;;;;25.65;63.08;100367.97;4806337;29;20055;-67
2022/06/22 02:57:50;;;;;;;8.15;6.57;;;;;;;25.73;62.89;100369.66;4805379;29;20411;-68
2022/06/22 03:00:21;;;;;;;10.93;5.87;;;;;;;25.69;63.10;100380.00;4802283;29;20066;-67
2022/06/22 03:03:01;;;;;;;9.80;5.75;;;;;;;25.67;62.96;100393.63;4790155;29;20078;-68
2022/06/22 03:05:29;;;;;;;7.88;5.85;;;;;;;25.81;62.35;100400.50;4793195;29;20056;-68
2022/06/22 03:08:00;;;;;;;6.53;5.90;;;;;;;25.77;62.63;100412.50;4806457;29;20065;-68
2022/06/22 03:10:52;;;;;;;7.55;5.38;;;;;;;25.71;62.66;100410.47;4805822;29;20118;-67
2022/06/22 03:13:28;;;;;;;8.85;5.68;;;;;;;25.59;63.09;100409.56;4806177;29;20614;-68
2022/06/22 03:15:56;;;;;;;10.70;5.68;;;;;;;25.48;62.62;100408.66;4805586;29;20051;-68
2022/06/22 03:18:28;;;;;;;8.60;5.35;;;;;;;25.50;62.00;100409.03;4805579;29;20495;-68
2022/06/22 03:21:01;;;;;;;6.47;5.60;;;;;;;25.44;61.92;100408.63;4805931;29;20049;-68
2022/06/22 03:23:51;;;;;;;6.50;5.10;;;;;;;25.41;62.28;100406.56;4805908;29;20051;-68
2022/06/22 03:26:24;;;;;;;8.90;5.90;;;;;;;25.38;62.78;100393.34;4803273;29;20063;-67
2022/06/22 03:29:10;;;;;;;10.93;5.68;;;;;;;25.35;63.55;100394.13;4800552;29;20046;-68
2022/06/22 03:31:44;;;;;;;8.50;6.18;;;;;;;25.47;63.32;100388.22;4777959;29;20054;-68
2022/06/22 03:34:20;;;;;;;7.65;6.13;;;;;;;25.43;64.01;100395.00;4795110;29;20047;-68
2022/06/22 03:37:00;;;;;;;10.07;6.25;;;;;;;25.41;64.23;100397.38;4776179;29;20056;-67
2022/06/22 03:39:31;;;;;;;7.15;6.15;;;;;;;25.35;64.63;100383.72;4787627;29;20067;-67
2022/06/22 03:42:04;;;;;;;8.68;6.97;;;;;;;25.35;65.05;100380.13;4787584;29;20047;-68
2022/06/22 03:44:38;;;;;;;9.43;6.55;;;;;;;25.25;65.44;100383.63;4786337;29;20055;-68
2022/06/22 03:47:15;;;;;;;9.02;6.32;;;;;;;25.27;65.73;100386.84;4786284;29;20511;-68
2022/06/22 03:50:00;;;;;;;9.15;5.78;;;;;;;25.28;65.67;100380.06;4787620;29;20055;-68
2022/06/22 03:52:31;;;;;;;14.55;6.55;;;;;;;25.57;64.60;100378.31;4787535;29;20075;-68
2022/06/22 03:55:04;;;;;;;10.57;6.15;;;;;;;25.68;63.96;100375.63;4787632;29;20055;-68
2022/06/22 03:57:37;;;;;;;7.03;5.43;;;;;;;25.80;63.13;100368.09;4787574;29;20051;-68
2022/06/22 04:00:07;;;;;;;7.65;6.22;;;;;;;25.95;62.46;100377.38;4787605;29;20081;-68
2022/06/22 04:02:36;;;;;;;11.50;6.25;;;;;;;25.70;63.59;100375.22;4787255;29;20043;-68
2022/06/22 04:05:05;;;;;;;6.20;5.28;;;;;;;25.68;63.62;100355.19;4787323;29;20058;-68
2022/06/22 04:07:39;;;;;;;8.88;5.82;;;;;;;25.75;63.49;100364.44;4785644;29;20062;-68
2022/06/22 04:10:13;;;;;;;;;;;;;;;25.56;64.24;100382.31;4773634;29;20064;-68
2022/06/22 04:12:47;;;;;;;8.15;5.97;;;;;;;25.67;64.11;100388.03;4786260;29;20547;-68
2022/06/22 04:15:28;;;;;;;9.80;6.03;;;;;;;25.59;64.40;100377.94;4783289;29;20452;-68
2022/06/22 04:18:01;;;;;;;9.20;5.70;;;;;;;25.58;64.19;100379.13;4786997;29;20058;-68
2022/06/22 04:20:52;;;;;;;7.43;5.73;;;;;;;25.69;64.00;100360.41;4787166;29;20067;-68
2022/06/22 04:23:44;;;;;;;7.07;5.95;;;;;;;25.60;64.42;100357.94;4776831;29;20312;-68
2022/06/22 04:26:33;;;;;;;5.80;5.18;;;;;;;25.46;65.00;100361.41;4787157;29;20078;-68
2022/06/22 04:29:09;;;;;;;7.82;5.85;;;;;;;25.40;65.38;100365.75;4787089;29;20062;-67
2022/06/22 04:31:47;;;;;;;6.78;5.85;;;;;;;25.46;65.17;100367.00;4787344;29;20062;-68
2022/06/22 04:34:29;;;;;;;6.10;5.25;;;;;;;25.72;64.54;100362.41;4787184;29;20058;-79
2022/06/22 04:37:01;;;;;;;6.45;5.30;;;;;;;26.17;63.27;100361.47;4769202;30;20070;-80
2022/06/22 04:39:43;;;;;;;8.23;5.05;;;;;;;26.37;62.50;100355.56;4767207;30;20063;-80
2022/06/22 04:42:11;;;;;;;7.55;5.18;;;;;;;26.54;61.69;100374.47;4769087;30;20504;-80
2022/06/22 04:44:46;;;;;;;7.85;5.75;;;;;;;26.63;61.40;100376.13;4767803;30;20060;-80
2022/06/22 04:47:24;;;;;;;6.78;5.30;;;;;;;26.76;60.84;100374.56;4768751;30;20052;-80
2022/06/22 04:49:57;;;;;;;8.18;5.57;;;;;;;26.90;59.90;100387.00;4768961;30;20052;-80
2022/06/22 04:52:33;;;;;;;8.18;5.53;;;;;;;27.01;59.19;100396.28;4768796;30;20098;-80
2022/06/22 04:55:04;;;;;;;8.85;5.60;;;;;;;26.93;59.71;100392.66;4768876;30;20415;-80
2022/06/22 04:57:37;;;;;;;5.88;5.22;;;;;;;27.05;59.18;100390.66;4768841;30;20048;-80
2022/06/22 05:00:16;;;;;;;11.32;5.07;;;;;;;27.16;58.88;100404.72;4765101;30;20386;-80
2022/06/22 05:02:49;;;;;;;7.53;4.82;;;;;;;27.13;59.05;100397.09;4752013;30;20146;-80
2022/06/22 05:05:23;;;;;;;6.40;5.32;;;;;;;27.13;59.07;100403.53;4759077;30;20551;-80
2022/06/22 05:08:03;;;;;;;6.93;6.28;;;;;;;27.12;59.18;100398.31;4752914;30;20063;-80
2022/06/22 05:10:43;;;;;;;8.60;5.45;;;;;;;27.24;58.88;100411.97;4763844;30;20213;-79
2022/06/22 05:13:37;;;;;;;9.32;5.40;;;;;;;27.27;58.90;100410.38;4768818;30;20059;-80
2022/06/22 05:16:11;;;;;;;8.52;5.70;;;;;;;27.22;59.34;100414.38;4767225;30;20480;-80
2022/06/22 05:18:41;;;;;;;6.47;5.07;;;;;;;27.26;59.06;100420.78;4761371;30;20436;-81
2022/06/22 05:21:37;;;;;;;7.70;6.72;;;;;;;27.18;59.72;100419.19;4760324;30;20055;-81
2022/06/22 05:24:14;;;;;;;6.93;5.43;;;;;;;27.15;60.27;100419.97;4765527;30;20500;-81
2022/06/22 05:26:43;;;;;;;8.38;5.70;;;;;;;27.02;60.68;100423.16;4771730;30;20504;-81
2022/06/22 05:29:17;;;;;;;9.32;5.78;;;;;;;27.05;60.75;100430.81;4771776;30;20066;-81
2022/06/22 05:31:52;;;;;;;12.30;6.20;;;;;;;27.01;61.24;100440.41;4770786;30;20056;-80
2022/06/22 05:34:27;;;;;;;7.93;6.15;;;;;;;27.07;60.87;100445.22;4770287;29;20416;-81
2022/06/22 05:37:22;;;;;;;10.60;6.18;;;;;;;27.08;60.74;100444.03;4791288;29;20047;-81
2022/06/22 05:39:51;;;;;;;11.88;5.90;;;;;;;27.15;60.21;100453.66;4805335;29;20046;-81
2022/06/22 05:42:19;;;;;;;7.00;5.32;;;;;;;27.21;60.00;100457.69;4804313;29;20042;-81
2022/06/22 05:44:47;;;;;;;9.40;6.55;;;;;;;27.30;59.62;100462.94;4806336;29;20082;-81
2022/06/22 05:47:22;;;;;;;7.60;5.55;;;;;;;27.46;58.78;100474.59;4804780;29;20077;-81
2022/06/22 05:50:34;;;;;;;9.07;6.18;;;;;;;27.63;58.37;100487.06;4805364;29;20066;-81
2022/06/22 05:53:11;;;;;;;10.48;5.82;;;;;;;27.88;57.49;100482.66;4796644;29;20067;-81
2022/06/22 05:55:45;;;;;;;9.65;5.82;;;;;;;27.83;57.45;100491.50;4805441;29;20053;-81
2022/06/22 05:58:50;;;;;;;8.68;6.50;;;;;;;27.71;58.16;100492.72;4805501;29;20058;-81
2022/06/22 06:01:43;;;;;;;9.25;5.68;;;;;;;27.89;57.43;100507.59;4778747;29;20063;-80
2022/06/22 06:04:13;;;;;;;9.15;5.88;;;;;;;27.83;57.62;100512.00;4806672;29;20061;-81
2022/06/22 06:06:43;;;;;;;6.00;5.40;;;;;;;27.89;57.07;100501.13;4806920;29;20059;-81
2022/06/22 06:09:30;;;;;;;7.25;5.35;;;;;;;28.05;56.85;100489.47;4806889;29;20430;-81
2022/06/22 06:12:16;;;;;;;8.10;5.88;;;;;;;28.10;57.21;100482.66;4807068;29;20062;-81
2022/06/22 06:14:49;;;;;;;6.00;5.03;;;;;;;28.27;56.56;100493.13;4795516;29;20529;-80
2022/06/22 06:17:22;;;;;;;8.27;4.83;;;;;;;28.34;56.19;100497.13;4806820;29;20065;-81
2022/06/22 06:19:52;;;;;;;;;;;;;;;28.31;56.13;100526.88;4807543;29;20038;-80
2022/06/22 06:22:22;;;;;;;7.63;5.90;;;;;;;28.35;56.09;100533.28;4800081;29;20385;-81
2022/06/22 06:27:58;;;;;;;6.38;5.22;;;;;;;28.47;55.20;100528.41;4790312;29;20043;-81
2022/06/22 06:30:38;;;;;;;9.50;6.32;;;;;;;28.38;56.05;100526.03;4779045;29;20048;-80
2022/06/22 06:33:19;;;;;;;8.95;6.07;;;;;;;28.21;56.55;100516.38;4804120;29;20055;-80
2022/06/22 06:35:52;;;;;;;9.00;5.38;;;;;;;28.21;56.44;100516.38;4786964;29;20056;-81
2022/06/22 06:38:38;;;;;;;8.33;6.10;;;;;;;28.14;56.21;100512.38;4788359;29;20391;-81
2022/06/22 06:41:11;;;;;;;11.23;5.63;;;;;;;28.11;56.72;100529.25;4788258;29;20069;-81
2022/06/22 06:43:39;;;;;;;;;;;;;;;28.00;57.10;100537.72;4788617;29;20054;-81
2022/06/22 06:46:22;;;;;;;9.10;5.00;;;;;;;28.10;56.91;100528.44;4786842;29;19925;-81
2022/06/22 06:49:02;;;;;;;9.43;5.90;;;;;;;28.21;56.22;100527.66;4787793;29;20059;-80
2022/06/22 06:51:31;;;;;;;8.50;5.90;;;;;;;28.21;56.24;100527.66;4788254;29;20119;-83
2022/06/22 06:54:13;;;;;;;9.85;6.10;;;;;;;28.35;55.32;100524.81;4788066;29;20071;-83
2022/06/22 06:57:10;;;;;;;8.88;6.80;;;;;;;28.09;56.76;100532.47;4788185;29;20055;-83
2022/06/22 06:59:40;;;;;;;8.95;6.30;;;;;;;28.27;55.90;100531.69;4786988;29;20054;-83
2022/06/22 07:02:33;;;;;;;8.80;6.22;;;;;;;28.18;56.27;100520.81;4786799;29;20403;-83
2022/06/22 07:05:06;;;;;;;6.50;5.80;;;;;;;28.30;55.93;100526.03;4785782;29;20058;-83
2022/06/22 07:08:04;;;;;;;12.18;6.35;;;;;;;28.30;55.38;100533.69;4768848;30;20419;-83
2022/06/22 07:11:05;;;;;;;10.80;6.05;;;;;;;28.43;55.52;100540.50;4785195;29;20086;-83
2022/06/22 07:13:39;;;;;;;6.55;5.20;;;;;;;28.51;54.96;100548.94;4787729;29;20265;-83
2022/06/22 07:16:14;;;;;;;9.88;5.60;;;;;;;28.68;54.74;100538.81;4787585;29;20444;-83
2022/06/22 07:18:46;;;;;;;7.00;5.63;;;;;;;28.81;54.54;100536.38;4786232;29;20051;-82
2022/06/22 07:21:34;;;;;;;8.13;5.00;;;;;;;28.97;53.71;100533.94;4787288;29;20626;-82
2022/06/22 07:24:13;;;;;;;8.90;5.82;;;;;;;29.01;53.42;100538.72;4786636;29;20051;-82
2022/06/22 07:27:12;;;;;;;10.15;5.80;;;;;;;29.11;53.05;100549.16;4787688;29;20051;-82
2022/06/22 07:29:50;;;;;;;8.70;5.35;;;;;;;29.02;53.42;100562.91;4787549;29;20047;-82
2022/06/22 07:32:57;;;;;;;9.73;5.85;;;;;;;29.02;53.44;100563.69;4787015;29;20078;-82
2022/06/22 07:35:41;;;;;;;6.22;5.30;;;;;;;28.91;53.26;100563.72;4795679;29;20444;-82
2022/06/22 07:38:23;;;;;;;6.93;4.78;;;;;;;29.00;53.46;100554.84;4805413;29;20047;-83
2022/06/22 07:43:40;;;;;;;11.52;5.82;;;;;;;29.04;53.27;100554.81;4798405;29;20063;-83
2022/06/22 07:46:15;;;;;;;7.55;4.80;;;;;;;29.02;53.59;100571.34;4796250;29;20494;-83
2022/06/22 07:48:47;;;;;;;9.48;4.55;;;;;;;28.90;53.84;100573.41;4805214;29;20054;-82
2022/06/22 07:51:22;;;;;;;10.85;5.80;;;;;;;28.91;54.93;100560.91;4786215;29;20062;-82
2022/06/22 07:53:57;;;;;;;6.53;5.63;;;;;;;28.66;56.53;100563.78;4802259;29;20062;-82
2022/06/22 07:56:55;;;;;;;10.50;5.50;;;;;;;28.69;56.87;100563.75;4805602;29;20058;-82
2022/06/22 07:59:32;;;;;;;11.07;6.13;;;;;;;28.56;59.20;100559.78;4805126;29;20403;-82
2022/06/22 08:02:13;;;;;;;9.55;6.22;;;;;;;28.49;57.44;100568.25;4804594;29;20233;-82
2022/06/22 08:04:48;;;;;;;10.68;6.70;;;;;;;28.42;58.84;100555.78;4804977;29;20058;-82
2022/06/22 08:07:26;;;;;;;9.35;5.70;;;;;;;28.45;59.60;100540.09;4804792;29;20410;-83
2022/06/22 08:10:17;;;;;;;11.13;5.90;;;;;;;28.32;60.98;100528.47;4785777;29;20066;-82
2022/06/22 08:13:00;;;;;;;9.40;5.13;;;;;;;28.22;59.96;100515.19;4803534;29;20063;-83
2022/06/22 08:15:33;;;;;;;7.30;6.13;;;;;;;28.16;61.00;100487.44;4804809;29;20051;-83
2022/06/22 08:18:02;;;;;;;7.05;5.28;;;;;;;28.21;60.76;100460.13;4788703;29;20051;-82
2022/06/22 08:20:34;;;;;;;8.95;6.03;;;;;;;28.10;60.90;100449.69;4804806;29;20050;-82
2022/06/22 08:23:05;;;;;;;10.63;5.75;;;;;;;28.12;62.45;100447.31;4803789;29;20057;-83
2022/06/22 08:25:56;;;;;;;11.43;5.97;;;;;;;28.06;62.93;100453.72;4786182;29;20047;-82
2022/06/22 08:28:25;;;;;;;8.32;5.70;;;;;;;27.98;63.14;100458.56;4804787;29;20055;-81
2022/06/22 08:30:55;;;;;;;8.82;5.68;;;;;;;27.90;64.44;100441.69;4803973;29;20050;-89
2022/06/22 08:33:32;;;;;;;6.28;5.13;;;;;;;27.97;65.11;100424.03;4804510;29;20062;-90
2022/06/22 08:36:11;;;;;;;9.68;5.55;;;;;;;27.96;63.68;100416.00;4803556;29;20065;-89
2022/06/22 08:38:58;;;;;;;7.22;5.32;;;;;;;27.83;64.49;100412.78;4804029;29;20665;-88
2022/06/22 08:41:49;;;;;;;8.27;5.93;;;;;;;27.88;64.00;100404.75;4804921;29;20406;-93
2022/06/22 08:44:38;;;;;;;11.27;6.38;;;;;;;27.81;64.13;100416.00;4788337;29;20059;-91
2022/06/22 08:47:09;;;;;;;10.35;6.25;;;;;;;27.75;65.60;100426.84;4804673;29;20061;-91
2022/06/22 08:49:48;;;;;;;8.10;5.88;;;;;;;27.96;64.01;100436.47;4804273;29;20407;-94
2022/06/22 08:52:49;;;;;;;13.55;6.53;;;;;;;27.90;64.38;100441.69;4788399;29;20055;-94
2022/06/22 08:55:44;;;;;;;10.55;6.10;;;;;;;28.06;62.93;100460.16;4804894;29;20062;-92
2022/06/22 08:58:38;;;;;;;8.98;5.95;;;;;;;28.03;63.06;100433.66;4808898;29;20051;-91
2022/06/22 09:01:45;;;;;;;8.32;6.18;;;;;;;28.19;61.31;100429.59;4774837;30;20066;-95
2022/06/22 09:04:31;;;;;;;7.88;6.30;;;;;;;28.07;62.85;100416.78;4799029;29;20078;-95
2022/06/22 09:07:20;;;;;;;9.63;6.82;;;;;;;28.10;62.87;100427.19;4808870;29;20054;-95
2022/06/22 09:10:04;;;;;;;10.63;6.78;;;;;;;28.02;62.69;100420.00;4809170;29;20062;-94
2022/06/22 09:12:38;;;;;;;9.13;6.43;;;;;;;28.19;65.04;100390.19;4797771;29;20054;-95
2022/06/22 09:15:13;;;;;;;7.60;6.20;;;;;;;28.32;62.04;100375.72;4821560;29;20074;-93
2022/06/22 09:17:47;;;;;;;;;;;;;;;28.39;60.74;100384.94;4793386;29;20087;-93
2022/06/22 09:20:34;;;;;;;9.70;7.00;;;;;;;28.56;60.07;100399.34;4808609;29;19932;-94
2022/06/22 09:23:14;;;;;;;9.40;5.72;;;;;;;28.52;59.39;100399.38;4808480;29;20046;-94
2022/06/22 09:26:12;;;;;;;9.88;6.13;;;;;;;28.53;59.24;100405.78;4792630;29;20050;-94
2022/06/22 09:28:53;;;;;;;8.13;6.00;;;;;;;28.60;59.00;100404.94;4792599;29;20054;-94
2022/06/22 09:31:51;;;;;;;6.68;5.65;;;;;;;28.73;58.38;100400.47;4808251;29;20502;-92
2022/06/22 09:34:40;;;;;;;11.93;6.32;;;;;;;28.80;57.14;100406.06;4808179;29;20058;-94
2022/06/22 09:37:20;;;;;;;9.32;6.13;;;;;;;28.87;57.60;100398.81;4808448;29;20066;-94
2022/06/22 09:40:13;;;;;;;12.75;6.40;;;;;;;28.85;56.94;100407.66;4807815;29;20062;-94
2022/06/22 09:43:12;;;;;;;10.07;6.20;;;;;;;28.97;57.87;100410.00;4807302;29;20078;-85
2022/06/22 09:45:45;;;;;;;10.20;6.50;;;;;;;29.17;56.77;100406.66;4806735;29;20062;-86
2022/06/22 09:48:57;;;;;;;10.63;6.32;;;;;;;29.09;56.39;100413.56;4806670;29;20054;-85
2022/06/22 09:51:34;;;;;;;10.60;6.93;;;;;;;29.02;56.18;100413.63;4802585;29;20062;-86
2022/06/22 09:58:00;;;;;;;11.85;6.70;;;;;;;29.12;57.05;100431.66;4807210;29;20050;-85
2022/06/22 10:00:58;;;;;;;7.93;6.07;;;;;;;29.28;56.55;100445.22;4806760;29;20054;-85
2022/06/22 10:04:12;;;;;;;13.30;6.78;;;;;;;29.15;56.97;100453.34;4800989;29;20077;-86
2022/06/22 10:07:05;;;;;;;13.23;7.85;;;;;;;29.52;55.71;100457.56;4774088;29;20070;-85
2022/06/22 10:10:07;;;;;;;16.95;7.60;;;;;;;29.70;55.40;100471.50;4790927;29;20059;-85
2022/06/22 10:12:55;;;;;;;11.40;7.03;;;;;;;29.74;54.60;100471.47;4804775;29;20054;-86
2022/06/22 10:15:41;;;;;;;13.13;7.90;;;;;;;29.53;55.72;100470.44;4794941;29;20415;-85
2022/06/22 10:18:37;;;;;;;13.93;8.70;;;;;;;29.26;56.51;100478.66;4807010;29;20080;-86
2022/06/22 10:21:20;;;;;;;10.63;6.90;;;;;;;29.19;56.48;100493.59;4806728;29;20406;-86
2022/06/22 10:24:26;;;;;;;13.70;8.60;;;;;;;29.01;57.21;100528.28;4805526;29;20051;-86
2022/06/22 10:27:28;;;;;;;12.38;8.25;;;;;;;28.93;57.47;100543.63;4797365;29;20085;-85
2022/06/22 10:30:31;;;;;;;10.30;7.13;;;;;;;29.07;57.35;100543.53;4806005;29;20062;-86
2022/06/22 10:33:20;;;;;;;12.52;7.93;;;;;;;29.07;57.33;100508.94;4741428;29;20064;-87
2022/06/22 10:36:18;;;;;;;;;;;;;;;29.15;58.23;100487.97;4772611;30;20067;-86
2022/06/22 10:38:58;;;;;;;10.38;7.28;;;;;;;29.29;56.34;100483.47;4788412;29;19939;-86
2022/06/22 10:45:20;;;;;;;12.60;7.22;;;;;;;29.66;55.42;100459.44;4788306;29;20431;-86
2022/06/22 10:48:39;;;;;;;9.23;6.63;;;;;;;29.93;54.45;100438.25;4778719;29;20052;-86
2022/06/22 10:51:45;;;;;;;12.20;8.07;;;;;;;30.00;54.21;100416.44;4779159;29;20051;-86
2022/06/22 10:54:49;;;;;;;8.93;6.50;;;;;;;30.21;53.28;100419.47;4782279;29;20056;-86
2022/06/22 10:57:31;;;;;;;14.23;6.95;;;;;;;30.69;52.37;100406.41;4773595;29;20758;-86
2022/06/22 11:00:17;;;;;;;12.05;6.88;;;;;;;30.94;50.85;100405.25;4769240;29;20051;-85
2022/06/22 11:03:19;;;;;;;12.82;7.10;;;;;;;30.73;51.22;100401.50;4777758;29;20044;-85
2022/06/22 11:05:54;;;;;;;8.10;6.25;;;;;;;30.77;50.58;100387.31;4780836;29;20062;-86
2022/06/22 11:09:00;;;;;;;10.30;6.90;;;;;;;30.51;50.75;100398.97;4779995;29;20062;-85
2022/06/22 11:11:31;;;;;;;6.97;5.93;;;;;;;30.64;50.65;100396.34;4778409;29;20048;-86
2022/06/22 11:14:13;;;;;;;8.63;6.07;;;;;;;30.73;50.62;100401.50;4771674;29;20059;-85
2022/06/22 11:16:55;;;;;;;8.38;6.85;;;;;;;30.91;50.16;100417.41;4772811;29;20459;-85
2022/06/22 11:19:42;;;;;;;9.80;6.38;;;;;;;31.18;49.36;100408.13;4768213;29;20052;-85
2022/06/22 11:22:10;;;;;;;8.75;5.85;;;;;;;31.54;48.62;100404.75;4757797;30;20059;-85
2022/06/22 11:25:02;;;;;;;9.27;6.00;;;;;;;31.42;47.28;100413.84;4777316;29;20062;-86
2022/06/22 11:30:56;;;;;;;9.27;5.57;;;;;;;31.75;46.16;100431.84;4777552;29;20056;-86
2022/06/22 11:34:02;;;;;;;9.60;6.50;;;;;;;31.77;45.89;100446.34;4780129;29;20044;-86
2022/06/22 11:37:25;;;;;;;8.45;6.38;;;;;;;31.53;45.57;100437.06;4767373;29;20059;-85
2022/06/22 11:40:39;;;;;;;8.80;6.10;;;;;;;31.23;46.67;100435.91;4776615;29;20119;-86
2022/06/22 11:43:10;;;;;;;7.03;5.78;;;;;;;31.13;46.73;100448.16;4770854;29;20056;-86
2022/06/22 11:46:07;;;;;;;11.23;6.18;;;;;;;30.81;48.04;100456.69;4768804;29;20495;-86
2022/06/22 11:49:06;;;;;;;9.15;7.22;;;;;;;30.69;48.32;100443.13;4767812;29;20040;-87
2022/06/22 11:51:57;;;;;;;9.93;7.47;;;;;;;30.52;48.40;100427.97;4770104;29;20090;-86
2022/06/22 11:54:25;;;;;;;10.48;6.15;;;;;;;30.86;48.08;100412.22;4783704;29;20067;-86
2022/06/22 11:56:56;;;;;;;11.35;7.53;;;;;;;31.08;47.32;100413.50;4772201;29;20058;-87
2022/06/22 11:59:58;;;;;;;8.50;6.68;;;;;;;31.22;46.91;100432.28;4768877;29;20063;-86
2022/06/22 12:03:02;;;;;;;9.75;5.60;;;;;;;31.64;46.48;100434.88;4774231;29;20049;-86
2022/06/22 12:05:44;;;;;;;8.57;5.65;;;;;;;31.99;44.88;100442.34;4786962;29;20054;-86
2022/06/22 12:08:46;;;;;;;8.45;6.35;;;;;;;31.86;45.19;100433.72;4787515;29;20058;-87
2022/06/22 12:11:35;;;;;;;7.85;5.75;;;;;;;32.27;44.78;100440.22;4779233;29;20062;-87
2022/06/22 12:17:27;;;;;;;7.50;5.93;;;;;;;32.78;43.33;100433.53;4774725;29;20074;-85
2022/06/22 12:20:19;;;;;;;6.25;5.22;;;;;;;32.84;42.91;100441.06;4776393;29;20055;-86
2022/06/22 12:23:21;;;;;;;6.47;4.90;;;;;;;32.42;43.09;100457.75;4768692;29;20110;-86
2022/06/22 12:26:26;;;;;;;11.35;5.90;;;;;;;31.77;44.03;100437.84;4767760;29;20091;-86
2022/06/22 12:29:30;;;;;;;5.65;5.13;;;;;;;31.56;44.68;100444.69;4772255;29;20050;-86
2022/06/22 12:32:12;;;;;;;6.07;5.22;;;;;;;31.48;45.03;100451.69;4776791;29;20059;-86
2022/06/22 12:34:48;;;;;;;7.63;4.88;;;;;;;31.38;44.95;100442.94;4771625;29;20499;-86
2022/06/22 12:37:28;;;;;;;5.25;4.53;;;;;;;31.43;45.10;100438.03;4800534;29;20055;-86
2022/06/22 12:40:04;;;;;;;7.50;5.25;;;;;;;31.49;44.35;100427.84;4794456;29;20484;-86
2022/06/22 12:42:52;;;;;;;6.95;5.00;;;;;;;31.70;44.46;100445.66;4786410;29;20051;-87
2022/06/22 12:45:48;;;;;;;6.88;4.95;;;;;;;31.85;44.34;100434.91;4758180;29;20043;-86
2022/06/22 12:48:52;;;;;;;5.30;4.80;;;;;;;31.79;43.88;100445.91;4790303;29;20046;-87
2022/06/22 12:51:26;;;;;;;9.80;5.82;;;;;;;31.73;44.33;100436.34;4801237;29;20043;-86
2022/06/22 12:54:06;;;;;;;4.68;4.20;;;;;;;31.87;44.08;100433.25;4788612;29;20053;-87
2022/06/22 12:56:59;;;;;;;6.90;4.50;;;;;;;31.86;43.92;100437.31;4790233;29;20050;-86
2022/06/22 12:59:34;;;;;;;5.47;4.82;;;;;;;32.03;43.30;100429.75;4776604;29;20054;-86
2022/06/22 13:02:05;;;;;;;5.57;4.05;;;;;;;31.96;43.13;100410.06;4782905;29;20412;-86